HRHO2: North Canadian River

                                SHEF ID:       HRHO2     North Canadian River near Harrah
STATION TYPE:
Regulating: Stage = 15.00, Flow = 9137

STAGE RIV-FLOW WTR-TEMP DIS-OXY PH CONDUCT BAT-LOAD
ft cfs F mg/l su umho/cm volt
Ccp-Rev Ccp-Rev Ccp-Rev Ccp-Rev Ccp-Rev Ccp-Rev Ccp-Rev
(America/Chicago)
11/04 00:00 3.21 189 60.94 7.24 7.91 821 11.56
11/04 01:00 3.21 189 60.26 7.48 7.91 855 11.54
11/04 02:00 3.18 183 59.61 7.30 7.92 840 11.56
11/04 03:00 3.17 181 59.04 7.41 7.91 853 11.55
11/04 04:00 3.15 177 58.57 7.37 7.90 838 11.54
11/04 05:00 3.15 177 58.10 7.54 7.90 851 11.52
11/04 06:00 3.12 171 57.61 7.64 7.91 846 11.52
11/04 07:00 3.09 165 57.20 7.69 7.89 858 11.53
11/04 08:00 3.02 152 57.24 8.07 7.92 853 11.45
11/04 09:00 3.01 150 57.92 8.38 7.95 858 11.71
11/04 10:00 2.97 143 59.36 8.52 7.99 852 12.12
11/04 11:00 2.96 141 61.12 8.55 8.03 853 12.27
11/04 12:00 3.01 150 63.01 8.58 8.09 843 12.37
11/04 13:00 2.97 143 64.63 8.42 8.06 843 12.40
11/04 14:00 2.95 139 65.70 8.22 8.13 837 12.42
11/04 15:00 2.95 139 66.06 8.14 8.11 839 12.40
11/04 16:00 2.94 137 65.77 8.01 8.17 833 12.56
11/04 17:00 2.95 139 64.94 7.30 8.06 831 12.54
11/04 18:00 2.93 135 63.99 7.47 8.12 827 12.25
11/04 19:00 2.92 134 63.23 6.68 7.98 827 12.08
11/04 20:00 2.91 132 62.55 6.92 8.05 822 11.81
11/04 21:00 2.91 132 62.10 6.55 7.89 824 11.66
11/04 22:00 2.91 132 61.65 6.81 7.95 824 11.58
11/04 23:00 2.91 132 61.48 6.57 7.81 825 11.65
Data processed at Wed 05Nov2025 05:25 GMT

NOTICE: If you are parsing this page

Please convert to using our Data API. Starting January 1st, 2026 we will be migrating to: https://water.usace.army.mil with modern pages rendered in JavaScript. You will no longer be able to scrape this page! CWMSDataAPI (CDA)

Timeseries IDs (TSIDs)

TSIDs used from left to right in the data table
HARR.Stage.Inst.1Hour.0.Ccp-Rev
HARR.Flow.Inst.1Hour.0.Ccp-Rev
HARR.Temp-Water.Inst.1Hour.0.Ccp-Rev
HARR.Conc-DO.Inst.1Hour.0.Ccp-Rev
HARR.pH.Inst.1Hour.0.Ccp-Rev
HARR.Cond-Water.Inst.1Hour.0.Ccp-Rev
HARR.Volt-Battery Load.Inst.1Hour.0.Ccp-Rev

                            

All information presented herein is the property of the government of the United States of America and may be revised or deleted at any time without prior notice. Dissemination of this information without the expressed written consent of the Public Affairs Office, Tulsa District U.S. Army Corps of Engineers is strictly prohibited. These data are gathered electronically and, as presented, have NOT undergone any form of quality control. These data are NOT guaranteed to be valid or correct.